sensor_id;sensor_type;location;lat;lon;timestamp;temperature;humidity
47540;DHT22;33280;52.152;21.052;2022-10-23T00:01:22;12.70;99.90
47540;DHT22;33280;52.152;21.052;2022-10-23T00:04:04;12.70;99.90
47540;DHT22;33280;52.152;21.052;2022-10-23T00:06:32;12.70;99.90
47540;DHT22;33280;52.152;21.052;2022-10-23T00:08:59;12.60;99.90
47540;DHT22;33280;52.152;21.052;2022-10-23T00:11:28;12.70;99.90
47540;DHT22;33280;52.152;21.052;2022-10-23T00:13:58;12.70;99.90
47540;DHT22;33280;52.152;21.052;2022-10-23T00:16:26;12.60;99.90
47540;DHT22;33280;52.152;21.052;2022-10-23T00:18:53;12.70;99.90
47540;DHT22;33280;52.152;21.052;2022-10-23T00:21:21;12.70;99.90
47540;DHT22;33280;52.152;21.052;2022-10-23T00:23:48;12.70;99.90
47540;DHT22;33280;52.152;21.052;2022-10-23T00:26:15;12.70;99.90
47540;DHT22;33280;52.152;21.052;2022-10-23T00:28:43;12.70;99.90
47540;DHT22;33280;52.152;21.052;2022-10-23T00:31:10;12.70;99.90
47540;DHT22;33280;52.152;21.052;2022-10-23T00:33:38;12.60;99.90
47540;DHT22;33280;52.152;21.052;2022-10-23T00:36:06;12.70;99.90
47540;DHT22;33280;52.152;21.052;2022-10-23T00:38:34;12.70;99.90
47540;DHT22;33280;52.152;21.052;2022-10-23T00:41:01;12.80;99.90
47540;DHT22;33280;52.152;21.052;2022-10-23T00:43:33;12.70;99.90
47540;DHT22;33280;52.152;21.052;2022-10-23T00:46:00;12.70;99.90
47540;DHT22;33280;52.152;21.052;2022-10-23T00:48:28;12.70;99.90
47540;DHT22;33280;52.152;21.052;2022-10-23T00:50:54;12.60;99.90
47540;DHT22;33280;52.152;21.052;2022-10-23T00:53:22;12.70;99.90
47540;DHT22;33280;52.152;21.052;2022-10-23T00:55:50;12.80;99.90
47540;DHT22;33280;52.152;21.052;2022-10-23T00:58:20;12.80;99.90
47540;DHT22;33280;52.152;21.052;2022-10-23T01:03:15;12.90;99.90
47540;DHT22;33280;52.152;21.052;2022-10-23T01:06:03;12.90;99.90
47540;DHT22;33280;52.152;21.052;2022-10-23T01:08:42;12.80;99.90
47540;DHT22;33280;52.152;21.052;2022-10-23T01:11:27;12.80;99.90
47540;DHT22;33280;52.152;21.052;2022-10-23T01:17:24;12.80;99.90
47540;DHT22;33280;52.152;21.052;2022-10-23T01:25:28;12.70;99.90
47540;DHT22;33280;52.152;21.052;2022-10-23T01:27:55;12.70;99.90
47540;DHT22;33280;52.152;21.052;2022-10-23T01:30:25;12.80;99.90
47540;DHT22;33280;52.152;21.052;2022-10-23T01:32:55;12.80;99.90
47540;DHT22;33280;52.152;21.052;2022-10-23T01:35:25;12.80;99.90
47540;DHT22;33280;52.152;21.052;2022-10-23T01:38:15;12.90;99.90
47540;DHT22;33280;52.152;21.052;2022-10-23T01:40:53;12.80;99.90
47540;DHT22;33280;52.152;21.052;2022-10-23T01:43:26;12.80;99.90
47540;DHT22;33280;52.152;21.052;2022-10-23T01:45:59;12.90;99.90
47540;DHT22;33280;52.152;21.052;2022-10-23T01:48:28;12.90;99.90
47540;DHT22;33280;52.152;21.052;2022-10-23T01:51:00;12.90;99.90
47540;DHT22;33280;52.152;21.052;2022-10-23T01:53:29;12.90;99.90
47540;DHT22;33280;52.152;21.052;2022-10-23T01:55:58;12.90;99.90
47540;DHT22;33280;52.152;21.052;2022-10-23T01:58:28;12.90;99.90
47540;DHT22;33280;52.152;21.052;2022-10-23T02:00:59;12.90;99.90
47540;DHT22;33280;52.152;21.052;2022-10-23T02:03:28;12.90;99.90
47540;DHT22;33280;52.152;21.052;2022-10-23T02:05:57;12.90;99.90
47540;DHT22;33280;52.152;21.052;2022-10-23T02:08:24;12.90;99.90
47540;DHT22;33280;52.152;21.052;2022-10-23T02:11:00;12.90;99.90
47540;DHT22;33280;52.152;21.052;2022-10-23T02:13:55;12.90;99.90
47540;DHT22;33280;52.152;21.052;2022-10-23T02:16:40;12.90;99.90
47540;DHT22;33280;52.152;21.052;2022-10-23T02:21:54;13.00;99.90
47540;DHT22;33280;52.152;21.052;2022-10-23T02:24:32;13.00;99.90
47540;DHT22;33280;52.152;21.052;2022-10-23T02:27:02;13.00;99.90
47540;DHT22;33280;52.152;21.052;2022-10-23T02:29:40;13.00;99.90
47540;DHT22;33280;52.152;21.052;2022-10-23T02:32:09;13.00;99.90
47540;DHT22;33280;52.152;21.052;2022-10-23T02:34:37;12.90;99.90
47540;DHT22;33280;52.152;21.052;2022-10-23T02:37:04;13.00;99.90
47540;DHT22;33280;52.152;21.052;2022-10-23T02:39:31;13.00;99.90
47540;DHT22;33280;52.152;21.052;2022-10-23T02:42:14;12.90;99.90
47540;DHT22;33280;52.152;21.052;2022-10-23T02:45:11;13.00;99.90
47540;DHT22;33280;52.152;21.052;2022-10-23T02:47:54;13.00;99.90
47540;DHT22;33280;52.152;21.052;2022-10-23T02:50:57;13.00;99.90
47540;DHT22;33280;52.152;21.052;2022-10-23T02:53:56;12.90;99.90
47540;DHT22;33280;52.152;21.052;2022-10-23T02:56:39;13.00;99.90
47540;DHT22;33280;52.152;21.052;2022-10-23T02:59:29;13.00;99.90
47540;DHT22;33280;52.152;21.052;2022-10-23T03:02:08;12.90;99.90
47540;DHT22;33280;52.152;21.052;2022-10-23T03:04:38;13.00;99.90
47540;DHT22;33280;52.152;21.052;2022-10-23T03:07:10;13.10;99.90
47540;DHT22;33280;52.152;21.052;2022-10-23T03:09:38;13.00;99.90
47540;DHT22;33280;52.152;21.052;2022-10-23T03:12:05;12.90;99.90
47540;DHT22;33280;52.152;21.052;2022-10-23T03:14:32;12.90;99.90
47540;DHT22;33280;52.152;21.052;2022-10-23T03:16:59;12.90;99.90
47540;DHT22;33280;52.152;21.052;2022-10-23T03:19:26;12.90;99.90
47540;DHT22;33280;52.152;21.052;2022-10-23T03:21:53;13.00;99.90
47540;DHT22;33280;52.152;21.052;2022-10-23T03:24:20;13.00;99.90
47540;DHT22;33280;52.152;21.052;2022-10-23T03:26:47;13.00;99.90
47540;DHT22;33280;52.152;21.052;2022-10-23T03:29:14;13.00;99.90
47540;DHT22;33280;52.152;21.052;2022-10-23T03:31:41;13.00;99.90
47540;DHT22;33280;52.152;21.052;2022-10-23T03:34:08;13.00;99.90
47540;DHT22;33280;52.152;21.052;2022-10-23T03:36:37;13.00;99.90
47540;DHT22;33280;52.152;21.052;2022-10-23T03:39:04;13.00;99.90
47540;DHT22;33280;52.152;21.052;2022-10-23T03:41:31;13.00;99.90
47540;DHT22;33280;52.152;21.052;2022-10-23T03:43:58;13.00;99.90
47540;DHT22;33280;52.152;21.052;2022-10-23T03:46:25;13.00;99.90
47540;DHT22;33280;52.152;21.052;2022-10-23T03:48:52;12.90;99.90
47540;DHT22;33280;52.152;21.052;2022-10-23T03:51:21;12.90;99.90
47540;DHT22;33280;52.152;21.052;2022-10-23T03:53:48;12.80;99.90
47540;DHT22;33280;52.152;21.052;2022-10-23T03:56:15;12.80;99.90
47540;DHT22;33280;52.152;21.052;2022-10-23T03:58:42;12.70;99.90
47540;DHT22;33280;52.152;21.052;2022-10-23T04:01:09;12.70;99.90
47540;DHT22;33280;52.152;21.052;2022-10-23T04:03:36;12.60;99.90
47540;DHT22;33280;52.152;21.052;2022-10-23T04:06:03;12.60;99.90
47540;DHT22;33280;52.152;21.052;2022-10-23T04:08:30;12.60;99.90
47540;DHT22;33280;52.152;21.052;2022-10-23T04:10:56;12.50;99.90
47540;DHT22;33280;52.152;21.052;2022-10-23T04:13:23;12.50;99.90
47540;DHT22;33280;52.152;21.052;2022-10-23T04:15:51;12.60;99.90
47540;DHT22;33280;52.152;21.052;2022-10-23T04:18:19;12.70;99.90
47540;DHT22;33280;52.152;21.052;2022-10-23T04:20:51;12.60;99.90
47540;DHT22;33280;52.152;21.052;2022-10-23T04:23:18;12.70;99.90
47540;DHT22;33280;52.152;21.052;2022-10-23T04:25:45;12.80;99.90
47540;DHT22;33280;52.152;21.052;2022-10-23T04:28:13;12.70;99.90
47540;DHT22;33280;52.152;21.052;2022-10-23T04:30:40;12.80;99.90
47540;DHT22;33280;52.152;21.052;2022-10-23T04:33:07;12.80;99.90
47540;DHT22;33280;52.152;21.052;2022-10-23T04:35:34;12.90;99.90
47540;DHT22;33280;52.152;21.052;2022-10-23T04:38:01;12.80;99.90
47540;DHT22;33280;52.152;21.052;2022-10-23T04:40:28;12.80;99.90
47540;DHT22;33280;52.152;21.052;2022-10-23T04:42:55;12.90;99.90
47540;DHT22;33280;52.152;21.052;2022-10-23T04:45:22;12.80;99.90
47540;DHT22;33280;52.152;21.052;2022-10-23T04:47:49;12.80;99.90
47540;DHT22;33280;52.152;21.052;2022-10-23T04:50:16;12.80;99.90
47540;DHT22;33280;52.152;21.052;2022-10-23T04:52:43;12.70;99.90
47540;DHT22;33280;52.152;21.052;2022-10-23T04:55:10;12.70;99.90
47540;DHT22;33280;52.152;21.052;2022-10-23T04:57:37;12.70;99.90
47540;DHT22;33280;52.152;21.052;2022-10-23T05:00:07;12.70;99.90
47540;DHT22;33280;52.152;21.052;2022-10-23T05:02:34;12.60;99.90
47540;DHT22;33280;52.152;21.052;2022-10-23T05:05:01;12.60;99.90
47540;DHT22;33280;52.152;21.052;2022-10-23T05:07:28;12.60;99.90
47540;DHT22;33280;52.152;21.052;2022-10-23T05:09:55;12.60;99.90
47540;DHT22;33280;52.152;21.052;2022-10-23T05:12:22;12.60;99.90
47540;DHT22;33280;52.152;21.052;2022-10-23T05:14:51;12.60;99.90
47540;DHT22;33280;52.152;21.052;2022-10-23T05:17:21;12.60;99.90
47540;DHT22;33280;52.152;21.052;2022-10-23T05:19:54;12.60;99.90
47540;DHT22;33280;52.152;21.052;2022-10-23T05:22:24;12.60;99.90
47540;DHT22;33280;52.152;21.052;2022-10-23T05:24:53;12.60;99.90
47540;DHT22;33280;52.152;21.052;2022-10-23T05:27:20;12.60;99.90
47540;DHT22;33280;52.152;21.052;2022-10-23T05:29:47;12.50;99.90
47540;DHT22;33280;52.152;21.052;2022-10-23T05:32:15;12.50;99.90
47540;DHT22;33280;52.152;21.052;2022-10-23T05:34:42;12.50;99.90
47540;DHT22;33280;52.152;21.052;2022-10-23T05:37:11;12.50;99.90
47540;DHT22;33280;52.152;21.052;2022-10-23T05:39:39;12.50;99.90
47540;DHT22;33280;52.152;21.052;2022-10-23T05:42:06;12.50;99.90
47540;DHT22;33280;52.152;21.052;2022-10-23T05:44:33;12.40;99.90
47540;DHT22;33280;52.152;21.052;2022-10-23T05:47:01;12.40;99.90
47540;DHT22;33280;52.152;21.052;2022-10-23T05:49:27;12.40;99.90
47540;DHT22;33280;52.152;21.052;2022-10-23T05:51:55;12.30;99.90
47540;DHT22;33280;52.152;21.052;2022-10-23T05:54:22;12.30;99.90
47540;DHT22;33280;52.152;21.052;2022-10-23T05:56:49;12.40;99.90
47540;DHT22;33280;52.152;21.052;2022-10-23T05:59:17;12.40;99.90
47540;DHT22;33280;52.152;21.052;2022-10-23T06:01:48;12.40;99.90
47540;DHT22;33280;52.152;21.052;2022-10-23T06:04:16;12.30;99.90
47540;DHT22;33280;52.152;21.052;2022-10-23T06:06:44;12.30;99.90
47540;DHT22;33280;52.152;21.052;2022-10-23T06:09:13;12.30;99.90
47540;DHT22;33280;52.152;21.052;2022-10-23T06:11:40;12.40;99.90
47540;DHT22;33280;52.152;21.052;2022-10-23T06:14:08;12.40;99.90
47540;DHT22;33280;52.152;21.052;2022-10-23T06:16:35;12.40;99.90
47540;DHT22;33280;52.152;21.052;2022-10-23T06:19:02;12.50;99.90
47540;DHT22;33280;52.152;21.052;2022-10-23T06:21:29;12.40;99.90
47540;DHT22;33280;52.152;21.052;2022-10-23T06:23:56;12.40;99.90
47540;DHT22;33280;52.152;21.052;2022-10-23T06:26:23;12.40;99.90
47540;DHT22;33280;52.152;21.052;2022-10-23T06:28:50;12.40;99.90
47540;DHT22;33280;52.152;21.052;2022-10-23T06:31:17;12.40;99.90
47540;DHT22;33280;52.152;21.052;2022-10-23T06:33:52;12.30;99.90
47540;DHT22;33280;52.152;21.052;2022-10-23T06:36:20;12.40;99.90
47540;DHT22;33280;52.152;21.052;2022-10-23T06:38:47;12.50;99.90
47540;DHT22;33280;52.152;21.052;2022-10-23T06:41:16;12.50;99.90
47540;DHT22;33280;52.152;21.052;2022-10-23T06:43:47;12.50;99.90
47540;DHT22;33280;52.152;21.052;2022-10-23T06:46:14;12.50;99.90
47540;DHT22;33280;52.152;21.052;2022-10-23T06:48:41;12.50;99.90
47540;DHT22;33280;52.152;21.052;2022-10-23T06:51:10;12.50;99.90
47540;DHT22;33280;52.152;21.052;2022-10-23T06:53:38;12.60;99.90
47540;DHT22;33280;52.152;21.052;2022-10-23T06:56:06;12.50;99.90
47540;DHT22;33280;52.152;21.052;2022-10-23T06:58:34;12.50;99.90
47540;DHT22;33280;52.152;21.052;2022-10-23T07:01:04;12.60;99.90
47540;DHT22;33280;52.152;21.052;2022-10-23T07:03:32;12.50;99.90
47540;DHT22;33280;52.152;21.052;2022-10-23T07:06:04;12.60;99.90
47540;DHT22;33280;52.152;21.052;2022-10-23T07:08:32;12.70;99.90
47540;DHT22;33280;52.152;21.052;2022-10-23T07:11:07;12.70;99.90
47540;DHT22;33280;52.152;21.052;2022-10-23T07:13:35;12.70;99.90
47540;DHT22;33280;52.152;21.052;2022-10-23T07:16:19;12.70;99.90
47540;DHT22;33280;52.152;21.052;2022-10-23T07:18:48;12.90;99.90
47540;DHT22;33280;52.152;21.052;2022-10-23T07:21:16;13.00;99.90
47540;DHT22;33280;52.152;21.052;2022-10-23T07:23:43;13.00;99.90
47540;DHT22;33280;52.152;21.052;2022-10-23T07:26:12;13.10;99.90
47540;DHT22;33280;52.152;21.052;2022-10-23T07:28:42;13.00;99.90
47540;DHT22;33280;52.152;21.052;2022-10-23T07:31:10;13.00;99.90
47540;DHT22;33280;52.152;21.052;2022-10-23T07:33:37;13.00;99.90
47540;DHT22;33280;52.152;21.052;2022-10-23T07:36:06;13.10;99.90
47540;DHT22;33280;52.152;21.052;2022-10-23T07:38:34;13.00;99.90
47540;DHT22;33280;52.152;21.052;2022-10-23T07:41:01;13.10;99.90
47540;DHT22;33280;52.152;21.052;2022-10-23T07:43:28;13.10;99.90
47540;DHT22;33280;52.152;21.052;2022-10-23T07:45:55;13.30;99.90
47540;DHT22;33280;52.152;21.052;2022-10-23T07:48:23;13.40;99.90
47540;DHT22;33280;52.152;21.052;2022-10-23T07:50:51;13.50;99.90
47540;DHT22;33280;52.152;21.052;2022-10-23T07:53:23;13.50;99.90
47540;DHT22;33280;52.152;21.052;2022-10-23T07:55:59;13.60;99.90
47540;DHT22;33280;52.152;21.052;2022-10-23T07:58:28;13.60;99.90
47540;DHT22;33280;52.152;21.052;2022-10-23T08:00:59;13.60;99.90
47540;DHT22;33280;52.152;21.052;2022-10-23T08:03:29;13.60;99.90
47540;DHT22;33280;52.152;21.052;2022-10-23T08:05:56;13.70;99.90
47540;DHT22;33280;52.152;21.052;2022-10-23T08:08:25;13.70;99.90
47540;DHT22;33280;52.152;21.052;2022-10-23T08:10:53;13.90;99.90
47540;DHT22;33280;52.152;21.052;2022-10-23T08:13:21;14.20;99.90
47540;DHT22;33280;52.152;21.052;2022-10-23T08:15:50;14.60;99.90
47540;DHT22;33280;52.152;21.052;2022-10-23T08:18:17;14.90;99.90
47540;DHT22;33280;52.152;21.052;2022-10-23T08:20:46;15.30;99.90
47540;DHT22;33280;52.152;21.052;2022-10-23T08:23:16;15.10;99.90
47540;DHT22;33280;52.152;21.052;2022-10-23T08:25:45;15.00;99.90
47540;DHT22;33280;52.152;21.052;2022-10-23T08:28:12;15.00;99.90
47540;DHT22;33280;52.152;21.052;2022-10-23T08:30:39;14.90;99.90
47540;DHT22;33280;52.152;21.052;2022-10-23T08:33:06;14.70;99.90
47540;DHT22;33280;52.152;21.052;2022-10-23T08:35:37;14.60;99.90
47540;DHT22;33280;52.152;21.052;2022-10-23T08:38:04;14.60;99.90
47540;DHT22;33280;52.152;21.052;2022-10-23T08:40:32;14.60;99.90
47540;DHT22;33280;52.152;21.052;2022-10-23T08:48:08;14.60;99.90
47540;DHT22;33280;52.152;21.052;2022-10-23T08:50:44;14.60;99.90
47540;DHT22;33280;52.152;21.052;2022-10-23T08:56:05;14.70;99.90
47540;DHT22;33280;52.152;21.052;2022-10-23T08:58:36;14.80;99.90
47540;DHT22;33280;52.152;21.052;2022-10-23T09:03:54;14.80;99.90
47540;DHT22;33280;52.152;21.052;2022-10-23T09:12:11;14.70;99.90
47540;DHT22;33280;52.152;21.052;2022-10-23T09:17:30;14.80;99.90
47540;DHT22;33280;52.152;21.052;2022-10-23T09:23:23;14.90;99.90
47540;DHT22;33280;52.152;21.052;2022-10-23T09:25:50;15.00;99.90
47540;DHT22;33280;52.152;21.052;2022-10-23T09:28:29;15.10;99.90
47540;DHT22;33280;52.152;21.052;2022-10-23T09:31:11;15.10;99.90
47540;DHT22;33280;52.152;21.052;2022-10-23T09:33:38;15.10;99.90
47540;DHT22;33280;52.152;21.052;2022-10-23T09:36:15;15.10;99.90
47540;DHT22;33280;52.152;21.052;2022-10-23T09:43:44;15.30;99.90
47540;DHT22;33280;52.152;21.052;2022-10-23T09:46:11;15.50;99.90
47540;DHT22;33280;52.152;21.052;2022-10-23T09:48:39;15.70;99.90
47540;DHT22;33280;52.152;21.052;2022-10-23T09:51:20;15.80;99.90
47540;DHT22;33280;52.152;21.052;2022-10-23T09:53:50;15.80;99.90
47540;DHT22;33280;52.152;21.052;2022-10-23T09:56:33;15.80;99.90
47540;DHT22;33280;52.152;21.052;2022-10-23T09:59:04;15.70;99.90
47540;DHT22;33280;52.152;21.052;2022-10-23T10:01:33;15.60;99.90
47540;DHT22;33280;52.152;21.052;2022-10-23T10:04:04;15.50;99.90
47540;DHT22;33280;52.152;21.052;2022-10-23T10:06:32;15.60;99.90
47540;DHT22;33280;52.152;21.052;2022-10-23T10:09:04;15.60;99.90
47540;DHT22;33280;52.152;21.052;2022-10-23T10:17:08;15.40;99.90
47540;DHT22;33280;52.152;21.052;2022-10-23T10:38:59;16.10;99.90
47540;DHT22;33280;52.152;21.052;2022-10-23T10:44:37;16.00;99.90
47540;DHT22;33280;52.152;21.052;2022-10-23T10:47:19;15.90;99.90
47540;DHT22;33280;52.152;21.052;2022-10-23T10:52:26;15.80;99.90
47540;DHT22;33280;52.152;21.052;2022-10-23T10:55:17;15.80;99.90
47540;DHT22;33280;52.152;21.052;2022-10-23T10:57:49;15.70;99.90
47540;DHT22;33280;52.152;21.052;2022-10-23T11:00:21;15.70;99.90
47540;DHT22;33280;52.152;21.052;2022-10-23T11:03:03;15.60;99.90
47540;DHT22;33280;52.152;21.052;2022-10-23T11:05:43;15.70;99.90
47540;DHT22;33280;52.152;21.052;2022-10-23T11:08:18;15.70;99.90
47540;DHT22;33280;52.152;21.052;2022-10-23T11:10:54;15.60;99.90
47540;DHT22;33280;52.152;21.052;2022-10-23T11:13:28;15.40;99.90
47540;DHT22;33280;52.152;21.052;2022-10-23T11:16:03;15.40;99.90
47540;DHT22;33280;52.152;21.052;2022-10-23T11:18:35;15.20;99.90
47540;DHT22;33280;52.152;21.052;2022-10-23T11:34:53;15.00;99.90
47540;DHT22;33280;52.152;21.052;2022-10-23T11:37:22;15.10;99.90
47540;DHT22;33280;52.152;21.052;2022-10-23T11:45:34;15.20;99.90
47540;DHT22;33280;52.152;21.052;2022-10-23T11:48:05;15.40;99.90
47540;DHT22;33280;52.152;21.052;2022-10-23T11:53:41;15.50;99.90
47540;DHT22;33280;52.152;21.052;2022-10-23T12:06:56;16.00;99.90
47540;DHT22;33280;52.152;21.052;2022-10-23T12:14:49;16.00;99.90
47540;DHT22;33280;52.152;21.052;2022-10-23T12:17:29;16.00;99.90
47540;DHT22;33280;52.152;21.052;2022-10-23T12:25:53;16.00;99.90
47540;DHT22;33280;52.152;21.052;2022-10-23T12:31:48;16.00;99.90
47540;DHT22;33280;52.152;21.052;2022-10-23T12:39:30;16.00;99.90
47540;DHT22;33280;52.152;21.052;2022-10-23T12:41:58;16.10;99.90
47540;DHT22;33280;52.152;21.052;2022-10-23T12:44:26;16.00;99.90
47540;DHT22;33280;52.152;21.052;2022-10-23T12:46:56;16.00;99.90
47540;DHT22;33280;52.152;21.052;2022-10-23T12:49:26;15.90;99.90
47540;DHT22;33280;52.152;21.052;2022-10-23T12:52:01;15.90;99.90
47540;DHT22;33280;52.152;21.052;2022-10-23T12:54:32;15.80;99.90
47540;DHT22;33280;52.152;21.052;2022-10-23T12:57:21;15.70;99.90
47540;DHT22;33280;52.152;21.052;2022-10-23T12:59:50;15.60;99.90
47540;DHT22;33280;52.152;21.052;2022-10-23T13:02:27;15.50;99.90
47540;DHT22;33280;52.152;21.052;2022-10-23T13:05:00;15.50;99.90
47540;DHT22;33280;52.152;21.052;2022-10-23T13:07:29;15.60;99.90
47540;DHT22;33280;52.152;21.052;2022-10-23T13:09:58;15.60;99.90
47540;DHT22;33280;52.152;21.052;2022-10-23T13:12:27;15.50;99.90
47540;DHT22;33280;52.152;21.052;2022-10-23T13:14:58;15.60;99.90
47540;DHT22;33280;52.152;21.052;2022-10-23T13:17:37;15.60;99.90
47540;DHT22;33280;52.152;21.052;2022-10-23T13:20:32;15.60;99.90
47540;DHT22;33280;52.152;21.052;2022-10-23T13:25:36;15.70;99.90
47540;DHT22;33280;52.152;21.052;2022-10-23T13:30:40;15.70;99.90
47540;DHT22;33280;52.152;21.052;2022-10-23T13:38:41;15.80;99.90
47540;DHT22;33280;52.152;21.052;2022-10-23T13:41:18;15.70;99.90
47540;DHT22;33280;52.152;21.052;2022-10-23T13:43:46;15.60;99.90
47540;DHT22;33280;52.152;21.052;2022-10-23T13:46:18;15.50;99.90
47540;DHT22;33280;52.152;21.052;2022-10-23T13:48:46;15.60;99.90
47540;DHT22;33280;52.152;21.052;2022-10-23T13:51:23;15.60;99.90
47540;DHT22;33280;52.152;21.052;2022-10-23T13:53:51;15.60;99.90
47540;DHT22;33280;52.152;21.052;2022-10-23T13:56:20;15.60;99.90
47540;DHT22;33280;52.152;21.052;2022-10-23T13:58:49;15.60;99.90
47540;DHT22;33280;52.152;21.052;2022-10-23T14:01:20;15.40;99.90
47540;DHT22;33280;52.152;21.052;2022-10-23T14:03:49;15.50;99.90
47540;DHT22;33280;52.152;21.052;2022-10-23T14:06:17;15.50;99.90
47540;DHT22;33280;52.152;21.052;2022-10-23T14:08:44;15.50;99.90
47540;DHT22;33280;52.152;21.052;2022-10-23T14:11:12;15.40;99.90
47540;DHT22;33280;52.152;21.052;2022-10-23T14:13:40;15.30;99.90
47540;DHT22;33280;52.152;21.052;2022-10-23T14:16:11;15.40;99.90
47540;DHT22;33280;52.152;21.052;2022-10-23T14:18:38;15.40;99.90
47540;DHT22;33280;52.152;21.052;2022-10-23T14:21:07;15.20;99.90
47540;DHT22;33280;52.152;21.052;2022-10-23T14:23:34;15.20;99.90
47540;DHT22;33280;52.152;21.052;2022-10-23T14:26:02;15.10;99.90
47540;DHT22;33280;52.152;21.052;2022-10-23T14:28:30;15.30;99.90
47540;DHT22;33280;52.152;21.052;2022-10-23T14:31:01;15.20;99.90
47540;DHT22;33280;52.152;21.052;2022-10-23T14:33:28;15.20;99.90
47540;DHT22;33280;52.152;21.052;2022-10-23T14:35:55;15.20;99.90
47540;DHT22;33280;52.152;21.052;2022-10-23T14:38:22;15.20;99.90
47540;DHT22;33280;52.152;21.052;2022-10-23T14:40:49;15.10;99.90
47540;DHT22;33280;52.152;21.052;2022-10-23T14:43:16;15.10;99.90
47540;DHT22;33280;52.152;21.052;2022-10-23T14:45:43;15.20;99.90
47540;DHT22;33280;52.152;21.052;2022-10-23T14:48:10;15.10;99.90
47540;DHT22;33280;52.152;21.052;2022-10-23T14:50:44;15.10;99.90
47540;DHT22;33280;52.152;21.052;2022-10-23T14:53:14;15.10;99.90
47540;DHT22;33280;52.152;21.052;2022-10-23T14:55:41;15.10;99.90
47540;DHT22;33280;52.152;21.052;2022-10-23T14:58:08;15.00;99.90
47540;DHT22;33280;52.152;21.052;2022-10-23T15:00:35;15.10;99.90
47540;DHT22;33280;52.152;21.052;2022-10-23T15:03:02;15.00;99.90
47540;DHT22;33280;52.152;21.052;2022-10-23T15:05:29;15.00;99.90
47540;DHT22;33280;52.152;21.052;2022-10-23T15:07:56;14.90;99.90
47540;DHT22;33280;52.152;21.052;2022-10-23T15:10:24;14.90;99.90
47540;DHT22;33280;52.152;21.052;2022-10-23T15:12:51;14.90;99.90
47540;DHT22;33280;52.152;21.052;2022-10-23T15:15:18;15.00;99.90
47540;DHT22;33280;52.152;21.052;2022-10-23T15:17:45;14.90;99.90
47540;DHT22;33280;52.152;21.052;2022-10-23T15:20:12;14.90;99.90
47540;DHT22;33280;52.152;21.052;2022-10-23T15:22:39;14.90;99.90
47540;DHT22;33280;52.152;21.052;2022-10-23T15:25:07;14.90;99.90
47540;DHT22;33280;52.152;21.052;2022-10-23T15:27:34;14.80;99.90
47540;DHT22;33280;52.152;21.052;2022-10-23T15:30:01;14.80;99.90
47540;DHT22;33280;52.152;21.052;2022-10-23T15:32:28;14.80;99.90
47540;DHT22;33280;52.152;21.052;2022-10-23T15:34:55;14.70;99.90
47540;DHT22;33280;52.152;21.052;2022-10-23T15:37:24;14.70;99.90
47540;DHT22;33280;52.152;21.052;2022-10-23T15:39:51;14.70;99.90
47540;DHT22;33280;52.152;21.052;2022-10-23T15:42:18;14.70;99.90
47540;DHT22;33280;52.152;21.052;2022-10-23T15:44:45;14.70;99.90
47540;DHT22;33280;52.152;21.052;2022-10-23T15:47:12;14.70;99.90
47540;DHT22;33280;52.152;21.052;2022-10-23T15:49:39;14.70;99.90
47540;DHT22;33280;52.152;21.052;2022-10-23T15:52:08;14.50;99.90
47540;DHT22;33280;52.152;21.052;2022-10-23T15:54:41;14.50;99.90
47540;DHT22;33280;52.152;21.052;2022-10-23T15:57:09;14.50;99.90
47540;DHT22;33280;52.152;21.052;2022-10-23T15:59:36;14.40;99.90
47540;DHT22;33280;52.152;21.052;2022-10-23T16:02:04;14.40;99.90
47540;DHT22;33280;52.152;21.052;2022-10-23T16:04:31;14.40;99.90
47540;DHT22;33280;52.152;21.052;2022-10-23T16:06:59;14.50;99.90
47540;DHT22;33280;52.152;21.052;2022-10-23T16:09:27;14.40;99.90
47540;DHT22;33280;52.152;21.052;2022-10-23T16:11:54;14.40;99.90
47540;DHT22;33280;52.152;21.052;2022-10-23T16:14:21;14.40;99.90
47540;DHT22;33280;52.152;21.052;2022-10-23T16:16:48;14.40;99.90
47540;DHT22;33280;52.152;21.052;2022-10-23T16:19:15;14.30;99.90
47540;DHT22;33280;52.152;21.052;2022-10-23T16:21:42;14.20;99.90
47540;DHT22;33280;52.152;21.052;2022-10-23T16:24:09;14.20;99.90
47540;DHT22;33280;52.152;21.052;2022-10-23T16:26:37;14.20;99.90
47540;DHT22;33280;52.152;21.052;2022-10-23T16:29:05;14.20;99.90
47540;DHT22;33280;52.152;21.052;2022-10-23T16:31:33;14.10;99.90
47540;DHT22;33280;52.152;21.052;2022-10-23T16:34:02;14.10;99.90
47540;DHT22;33280;52.152;21.052;2022-10-23T16:36:30;14.00;99.90
47540;DHT22;33280;52.152;21.052;2022-10-23T16:39:01;14.00;99.90
47540;DHT22;33280;52.152;21.052;2022-10-23T16:41:29;14.00;99.90
47540;DHT22;33280;52.152;21.052;2022-10-23T16:43:56;14.00;99.90
47540;DHT22;33280;52.152;21.052;2022-10-23T16:46:23;13.90;99.90
47540;DHT22;33280;52.152;21.052;2022-10-23T16:48:50;13.80;99.90
47540;DHT22;33280;52.152;21.052;2022-10-23T16:51:20;13.80;99.90
47540;DHT22;33280;52.152;21.052;2022-10-23T16:53:48;13.80;99.90
47540;DHT22;33280;52.152;21.052;2022-10-23T16:56:17;13.80;99.90
47540;DHT22;33280;52.152;21.052;2022-10-23T16:58:45;13.80;99.90
47540;DHT22;33280;52.152;21.052;2022-10-23T17:03:45;13.90;99.90
47540;DHT22;33280;52.152;21.052;2022-10-23T17:06:17;13.80;99.90
47540;DHT22;33280;52.152;21.052;2022-10-23T17:08:45;13.80;99.90
47540;DHT22;33280;52.152;21.052;2022-10-23T17:11:20;13.80;99.90
47540;DHT22;33280;52.152;21.052;2022-10-23T17:13:54;13.80;99.90
47540;DHT22;33280;52.152;21.052;2022-10-23T17:19:01;13.80;99.90
47540;DHT22;33280;52.152;21.052;2022-10-23T17:21:39;13.70;99.90
47540;DHT22;33280;52.152;21.052;2022-10-23T17:24:07;13.70;99.90
47540;DHT22;33280;52.152;21.052;2022-10-23T17:26:34;13.60;99.90
47540;DHT22;33280;52.152;21.052;2022-10-23T17:29:04;13.60;99.90
47540;DHT22;33280;52.152;21.052;2022-10-23T17:31:34;13.60;99.90
47540;DHT22;33280;52.152;21.052;2022-10-23T17:34:03;13.60;99.90
47540;DHT22;33280;52.152;21.052;2022-10-23T17:36:35;13.60;99.90
47540;DHT22;33280;52.152;21.052;2022-10-23T17:39:07;13.50;99.90
47540;DHT22;33280;52.152;21.052;2022-10-23T17:41:35;13.50;99.90
47540;DHT22;33280;52.152;21.052;2022-10-23T17:44:02;13.50;99.90
47540;DHT22;33280;52.152;21.052;2022-10-23T17:46:29;13.50;99.90
47540;DHT22;33280;52.152;21.052;2022-10-23T17:48:57;13.50;99.90
47540;DHT22;33280;52.152;21.052;2022-10-23T17:51:27;13.50;99.90
47540;DHT22;33280;52.152;21.052;2022-10-23T17:53:56;13.30;99.90